메인 페이지
METAR-TAF:

METAR-TAF

공항 :

요한 바오로 2세 공항

Ponta Delgada, 아조레스, 포르투갈

위도: 37-44N, 경도: 025-42W, 고도: 71m

현재 날씨관측

예보는 31분 전, 11:30시(UTC)에 발표되었습니다.
북북동12kt풍과 동북동풍을 오가는
온도 20°C
습도 88%
기압 1026 hPa
시정 10km 이상
고도 1200ft 상공 구름 조금
고도 1600ft 상공 구름 보통

METAR: LPPD 201130Z 03012KT 360V060 9999 FEW012 SCT016 20/18 Q1026

시각: 12:01 (12:01 UTC)

예보

예보는 1 시간 1분 전, 11:00시(UTC)에 발표되었습니다.
예보 대상 시간: 20일 12시부터 21일 12시까지 (UTC)
북북동15kt
시정 10km 이상
고도 1500ft 상공 구름 보통
고도 3500ft 상공 구름 많음
일시적
20일 12시부터 20일 15시까지 (UTC)
고도 800ft 상공 구름 조금
고도 1500ft 상공 구름 많음
확률 30% :
일시적
20일 15시부터 21일 12시까지 (UTC)
북북동18kt, 순간 최대 풍속 28kt
일시적
21일 00시부터 21일 12시까지 (UTC)
시정: 5000m
고도 600ft 상공 구름 조금
고도 1200ft 상공 구름 많음
약한비

TAF: LPPD 201100Z 2012/2112 03015KT 9999 SCT015 BKN035 TEMPO 2012/2015 FEW008 BKN015 PROB30 TEMPO 2015/2112 03018G28KT TEMPO 2100/2112 5000 -RA FEW006 BKN012

4,000개 이상의 공항 관측 자료 및 예보 (METAR 및 TAF 보고).

지도상에서 검색 가능한 기상관측소가 노란 점과 빨간 점으로 표시되어 있습니다.

기상관측소 명을 보려면 표시 위로 마우스를 이동하세요.

날씨 관측과 예보를 보려면 클릭하세요.

지도 변경 : 확대하려면 엑스 표시가 있는 녹색 버튼, 축소하려면 빼기 표시가 있는 녹색 버튼, 다음 페이지의 지도를 보려면 녹색 화살표를 클릭하세요.


METAR-TAF: